Time;durP1;ratioP1;P1;durP2;ratioP2;P2;SDS_P1;SDS_P2;PMS_P1;PMS_P2;Temp;Humidity;BMP_temperature;BMP_pressure;BME280_temperature;BME280_humidity;BME280_pressure;Samples;Min_cycle;Max_cycle;Signal;HPM_P1;HPM_P2
2023/04/21 00:01:43;;;;;;;16.33;12.77;;;11.10;55.70;;;;;;5010929;28;20054;-43
2023/04/21 00:04:12;;;;;;;16.45;12.43;;;11.10;55.70;;;;;;5005819;28;20486;-46
2023/04/21 00:06:40;;;;;;;21.58;15.15;;;11.10;55.70;;;;;;5013106;28;20064;-43
2023/04/21 00:09:07;;;;;;;17.35;12.77;;;11.10;55.70;;;;;;5008855;28;20050;-42
2023/04/21 00:11:36;;;;;;;19.08;14.65;;;11.10;55.80;;;;;;5010172;28;20065;-43
2023/04/21 00:14:03;;;;;;;19.73;13.40;;;11.00;55.90;;;;;;5007651;28;20068;-46
2023/04/21 00:16:30;;;;;;;18.10;12.98;;;11.10;56.10;;;;;;5011950;28;20056;-43
2023/04/21 00:18:58;;;;;;;16.38;12.05;;;11.00;55.90;;;;;;5014653;28;20504;-46
2023/04/21 00:21:25;;;;;;;16.73;12.13;;;11.00;55.90;;;;;;5007455;28;20046;-49
2023/04/21 00:23:52;;;;;;;17.35;13.18;;;11.00;55.90;;;;;;5009655;28;20068;-41
2023/04/21 00:26:20;;;;;;;16.58;12.43;;;11.00;55.90;;;;;;5013335;28;20061;-45
2023/04/21 00:28:48;;;;;;;15.32;11.48;;;11.00;55.90;;;;;;5009563;28;20052;-46
2023/04/21 00:31:15;;;;;;;18.25;13.05;;;11.00;56.00;;;;;;5006310;28;20425;-45
2023/04/21 00:33:43;;;;;;;18.10;12.55;;;11.00;55.90;;;;;;5013750;28;20061;-46
2023/04/21 00:36:10;;;;;;;17.25;13.02;;;11.00;55.90;;;;;;5010007;28;20050;-45
2023/04/21 00:38:37;;;;;;;15.95;12.02;;;11.00;55.90;;;;;;5005468;28;20061;-46
2023/04/21 00:41:04;;;;;;;16.67;12.88;;;11.10;55.90;;;;;;5016836;28;20064;-48
2023/04/21 00:43:32;;;;;;;17.77;13.20;;;11.10;55.90;;;;;;5005954;28;20421;-44
2023/04/21 00:46:00;;;;;;;17.67;13.02;;;11.10;56.00;;;;;;5013386;28;20501;-44
2023/04/21 00:48:27;;;;;;;15.98;12.77;;;11.10;56.00;;;;;;5011531;28;20060;-44
2023/04/21 00:50:55;;;;;;;18.83;13.70;;;11.10;56.10;;;;;;5010872;28;20065;-45
2023/04/21 00:53:22;;;;;;;20.38;14.75;;;11.10;56.10;;;;;;5018453;28;20057;-41
2023/04/21 00:55:50;;;;;;;19.05;13.48;;;11.10;56.10;;;;;;5014502;28;20054;-47
2023/04/21 00:58:17;;;;;;;21.77;15.15;;;11.10;56.10;;;;;;5016851;28;20060;-44
2023/04/21 01:00:45;;;;;;;20.95;14.55;;;11.10;56.10;;;;;;5003461;28;20410;-46
2023/04/21 01:03:13;;;;;;;18.58;13.43;;;11.10;56.20;;;;;;5035408;22;20057;-52
2023/04/21 01:05:41;;;;;;;19.45;14.13;;;11.10;56.20;;;;;;5020128;28;20056;-53
2023/04/21 01:08:08;;;;;;;20.20;13.98;;;11.10;56.10;;;;;;5019613;28;20064;-54
2023/04/21 01:10:35;;;;;;;20.73;14.13;;;11.10;56.10;;;;;;5017775;28;20438;-55
2023/04/21 01:13:03;;;;;;;20.45;13.93;;;11.10;56.10;;;;;;5018104;28;20057;-54
2023/04/21 01:15:30;;;;;;;19.40;14.30;;;11.10;56.10;;;;;;5017762;28;20060;-55
2023/04/21 01:17:58;;;;;;;18.38;13.50;;;11.10;56.10;;;;;;5018831;28;20060;-54
2023/04/21 01:20:28;;;;;;;17.75;13.05;;;11.10;56.10;;;;;;5020113;28;20503;-53
2023/04/21 01:22:57;;;;;;;17.08;13.02;;;11.10;56.20;;;;;;5016774;28;20057;-55
2023/04/21 01:25:27;;;;;;;19.15;14.20;;;11.10;56.20;;;;;;5018557;28;20417;-54
2023/04/21 01:27:54;;;;;;;17.13;13.50;;;11.10;56.10;;;;;;5000870;28;20045;-54
2023/04/21 01:30:21;;;;;;;21.27;13.95;;;11.10;56.10;;;;;;5016048;28;20049;-53
2023/04/21 01:32:48;;;;;;;20.65;14.20;;;11.10;56.10;;;;;;5012836;28;20489;-53
2023/04/21 01:35:16;;;;;;;17.45;13.40;;;11.10;56.10;;;;;;5017151;28;20064;-53
2023/04/21 01:37:43;;;;;;;18.05;12.98;;;11.10;56.10;;;;;;5018106;28;20053;-53
2023/04/21 01:40:12;;;;;;;19.13;12.85;;;11.10;56.10;;;;;;5018928;28;20056;-52
2023/04/21 01:42:42;;;;;;;17.25;12.43;;;11.10;56.10;;;;;;5017633;28;20062;-55
2023/04/21 01:45:10;;;;;;;17.65;13.63;;;11.10;56.20;;;;;;5014731;28;20068;-53
2023/04/21 01:47:38;;;;;;;18.38;13.65;;;11.00;56.10;;;;;;5019664;28;20064;-53
2023/04/21 01:50:06;;;;;;;16.88;12.63;;;11.00;56.20;;;;;;5018795;28;20050;-54
2023/04/21 01:52:33;;;;;;;20.80;13.88;;;11.00;56.20;;;;;;5016207;28;20046;-54
2023/04/21 01:55:01;;;;;;;18.67;13.95;;;11.00;56.20;;;;;;5018065;28;20054;-54
2023/04/21 01:57:30;;;;;;;19.95;15.45;;;11.00;56.20;;;;;;5017595;28;20053;-55
2023/04/21 01:59:57;;;;;;;18.65;14.15;;;11.00;56.30;;;;;;5012545;28;20045;-53
2023/04/21 02:02:25;;;;;;;18.58;13.70;;;11.00;56.30;;;;;;5022443;28;20060;-52
2023/04/21 02:04:52;;;;;;;21.40;14.93;;;11.00;56.30;;;;;;5022160;28;20385;-54
2023/04/21 02:07:19;;;;;;;19.00;13.35;;;11.00;56.30;;;;;;5024062;28;20056;-55
2023/04/21 02:09:46;;;;;;;18.42;13.98;;;11.00;56.30;;;;;;5019270;28;20501;-54
2023/04/21 02:12:13;;;;;;;19.90;14.35;;;11.00;56.30;;;;;;5022364;28;20049;-53
2023/04/21 02:14:42;;;;;;;20.35;14.55;;;11.00;56.40;;;;;;5021715;28;20057;-54
2023/04/21 02:17:09;;;;;;;17.33;13.18;;;11.00;56.50;;;;;;5022796;28;20058;-54
2023/04/21 02:19:37;;;;;;;18.27;13.70;;;11.00;56.50;;;;;;5021469;28;20061;-54
2023/04/21 02:22:05;;;;;;;19.02;13.57;;;11.00;56.50;;;;;;5020050;28;20052;-54
2023/04/21 02:24:32;;;;;;;19.00;13.20;;;11.00;56.60;;;;;;5021951;28;20072;-53
2023/04/21 02:27:00;;;;;;;19.88;12.63;;;11.00;56.60;;;;;;5018727;28;20081;-54
2023/04/21 02:29:28;;;;;;;17.63;12.32;;;11.00;56.60;;;;;;5016784;28;20488;-53
2023/04/21 02:31:56;;;;;;;17.08;12.70;;;11.00;56.60;;;;;;5019727;28;20429;-55
2023/04/21 02:34:24;;;;;;;17.92;12.48;;;11.00;56.60;;;;;;5017534;28;20049;-55
2023/04/21 02:36:51;;;;;;;16.05;12.65;;;11.00;56.50;;;;;;5018969;28;20124;-53
2023/04/21 02:39:18;;;;;;;14.73;11.38;;;11.00;56.50;;;;;;5021521;28;20045;-54
2023/04/21 02:41:45;;;;;;;24.95;12.85;;;11.00;56.50;;;;;;5021953;28;20058;-53
2023/04/21 02:44:12;;;;;;;13.75;11.25;;;11.00;56.40;;;;;;5018433;28;20409;-53
2023/04/21 02:46:40;;;;;;;17.73;12.43;;;11.00;56.40;;;;;;5019548;28;20370;-54
2023/04/21 02:49:09;;;;;;;22.13;15.80;;;11.00;56.30;;;;;;5021634;28;20064;-55
2023/04/21 02:51:36;;;;;;;19.63;14.30;;;10.90;56.30;;;;;;5021044;28;20060;-54
2023/04/21 02:54:03;;;;;;;17.40;13.30;;;10.90;56.30;;;;;;5022861;28;20060;-52
2023/04/21 02:56:31;;;;;;;17.92;13.73;;;10.90;56.20;;;;;;5021080;28;20054;-51
2023/04/21 02:58:58;;;;;;;21.38;15.02;;;10.90;56.30;;;;;;5018575;28;20441;-47
2023/04/21 03:01:25;;;;;;;20.08;14.38;;;10.90;56.30;;;;;;5016143;28;20053;-51
2023/04/21 03:03:53;;;;;;;21.27;14.90;;;10.90;56.30;;;;;;5016308;28;20055;-51
2023/04/21 03:06:21;;;;;;;20.98;14.15;;;10.90;56.30;;;;;;5017628;28;20057;-49
2023/04/21 03:08:48;;;;;;;20.77;14.90;;;10.80;56.30;;;;;;5017551;28;20053;-47
2023/04/21 03:11:15;;;;;;;21.35;14.27;;;10.80;56.30;;;;;;5022658;28;20052;-47
2023/04/21 03:13:43;;;;;;;19.42;15.13;;;10.80;56.30;;;;;;5018975;28;20065;-53
2023/04/21 03:16:10;;;;;;;22.00;15.25;;;10.80;56.30;;;;;;5020065;28;20065;-49
2023/04/21 03:18:37;;;;;;;22.88;16.88;;;10.80;56.20;;;;;;5021720;28;20057;-47
2023/04/21 03:21:04;;;;;;;23.38;15.82;;;10.70;56.20;;;;;;5016966;28;20869;-49
2023/04/21 03:23:33;;;;;;;20.67;15.32;;;10.70;56.30;;;;;;5020889;28;20050;-54
2023/04/21 03:26:00;;;;;;;22.58;15.70;;;10.70;56.30;;;;;;5019986;28;20061;-48
2023/04/21 03:28:27;;;;;;;22.63;16.45;;;10.70;56.20;;;;;;5022049;28;20061;-47
2023/04/21 03:30:54;;;;;;;25.35;16.83;;;10.60;56.20;;;;;;5019304;28;20398;-47
2023/04/21 03:33:22;;;;;;;25.85;17.75;;;10.60;56.30;;;;;;5021004;28;20149;-52
2023/04/21 03:35:49;;;;;;;26.27;18.02;;;10.60;56.30;;;;;;5021067;28;20057;-47
2023/04/21 03:38:16;;;;;;;24.42;17.35;;;10.60;56.40;;;;;;5018741;28;20054;-47
2023/04/21 03:40:44;;;;;;;28.25;18.35;;;10.50;56.40;;;;;;5018465;28;20064;-48
2023/04/21 03:43:12;;;;;;;26.05;17.27;;;10.50;56.50;;;;;;5018121;28;20499;-46
2023/04/21 03:45:39;;;;;;;21.85;15.88;;;10.50;56.60;;;;;;5019441;28;20484;-49
2023/04/21 03:48:06;;;;;;;27.85;19.73;;;10.50;56.60;;;;;;5018049;28;20389;-48
2023/04/21 03:50:33;;;;;;;24.50;16.83;;;10.50;56.60;;;;;;5014572;28;20045;-47
2023/04/21 03:53:01;;;;;;;24.42;16.95;;;10.50;56.70;;;;;;5021502;28;20529;-55
2023/04/21 03:55:28;;;;;;;24.85;17.73;;;10.50;56.70;;;;;;5019982;28;20412;-53
2023/04/21 03:57:57;;;;;;;29.08;19.10;;;10.40;56.70;;;;;;5017902;28;20065;-49
2023/04/21 04:00:24;;;;;;;25.70;17.30;;;10.40;56.80;;;;;;5016640;28;20049;-49
2023/04/21 04:02:51;;;;;;;27.25;18.63;;;10.40;56.80;;;;;;5020992;28;20065;-46
2023/04/21 04:05:19;;;;;;;28.48;18.60;;;10.40;56.80;;;;;;5020175;28;20428;-48
2023/04/21 04:07:46;;;;;;;24.63;16.75;;;10.40;56.90;;;;;;5016874;28;20057;-48
2023/04/21 04:10:13;;;;;;;24.05;17.02;;;10.40;56.90;;;;;;5018903;28;20053;-51
2023/04/21 04:12:40;;;;;;;30.27;20.88;;;10.40;56.90;;;;;;5018495;28;20363;-49
2023/04/21 04:15:09;;;;;;;24.63;17.67;;;10.40;56.90;;;;;;5017535;28;20053;-52
2023/04/21 04:17:36;;;;;;;24.88;16.52;;;10.40;56.90;;;;;;5017919;28;20057;-47
2023/04/21 04:20:05;;;;;;;24.23;16.92;;;10.40;56.80;;;;;;5017106;28;20563;-52
2023/04/21 04:22:33;;;;;;;25.50;17.15;;;10.40;56.80;;;;;;5019270;28;20049;-46
2023/04/21 04:25:00;;;;;;;27.23;18.88;;;10.30;56.80;;;;;;5019076;28;20049;-52
2023/04/21 04:27:28;;;;;;;24.60;17.45;;;10.30;56.80;;;;;;5013958;28;20061;-49
2023/04/21 04:29:56;;;;;;;27.05;16.77;;;10.30;56.70;;;;;;5012872;28;20065;-48
2023/04/21 04:32:27;;;;;;;27.67;18.52;;;10.30;56.70;;;;;;5021159;28;20046;-48
2023/04/21 04:34:55;;;;;;;27.92;17.38;;;10.30;56.80;;;;;;5017694;28;20053;-54
2023/04/21 04:37:24;;;;;;;27.63;18.42;;;10.30;56.80;;;;;;5018965;28;20050;-50
2023/04/21 04:39:53;;;;;;;25.88;18.25;;;10.30;56.80;;;;;;5019245;28;20382;-48
2023/04/21 04:42:20;;;;;;;28.10;18.42;;;10.30;56.90;;;;;;5017705;28;20405;-47
2023/04/21 04:44:47;;;;;;;28.55;19.02;;;10.30;56.90;;;;;;5015813;28;20076;-47
2023/04/21 04:47:15;;;;;;;29.95;19.27;;;10.30;56.90;;;;;;5020862;28;20049;-48
2023/04/21 04:49:43;;;;;;;28.67;19.10;;;10.30;57.00;;;;;;5021131;28;20405;-48
2023/04/21 04:52:10;;;;;;;29.38;20.05;;;10.30;57.10;;;;;;5013168;28;20045;-51
2023/04/21 04:54:38;;;;;;;28.60;18.77;;;10.30;57.10;;;;;;5019574;28;20057;-51
2023/04/21 04:57:05;;;;;;;29.63;18.60;;;10.20;57.20;;;;;;5017555;28;20049;-52
2023/04/21 04:59:32;;;;;;;26.90;18.05;;;10.20;57.30;;;;;;5018532;28;20412;-55
2023/04/21 05:01:59;;;;;;;28.70;19.13;;;10.30;57.40;;;;;;5017683;28;20049;-50
2023/04/21 05:04:26;;;;;;;37.75;23.88;;;10.30;57.50;;;;;;5017853;28;20053;-51
2023/04/21 05:06:55;;;;;;;32.80;21.25;;;10.30;57.70;;;;;;5018516;28;20073;-48
2023/04/21 05:09:23;;;;;;;29.88;19.30;;;10.30;57.90;;;;;;5018648;28;20056;-49
2023/04/21 05:11:50;;;;;;;27.70;18.95;;;10.30;57.90;;;;;;5019462;28;20049;-49
2023/04/21 05:14:18;;;;;;;33.40;20.80;;;10.30;58.00;;;;;;5019671;28;20076;-49
2023/04/21 05:16:45;;;;;;;29.75;20.20;;;10.30;58.00;;;;;;5020007;28;20061;-47
2023/04/21 05:19:13;;;;;;;29.35;19.80;;;10.30;58.10;;;;;;5017912;28;20053;-49
2023/04/21 05:21:40;;;;;;;29.42;19.30;;;10.30;58.10;;;;;;5019557;28;20050;-50
2023/04/21 05:24:08;;;;;;;30.38;19.73;;;10.40;58.10;;;;;;5018521;28;20045;-49
2023/04/21 05:26:36;;;;;;;27.15;18.35;;;10.40;58.20;;;;;;5018432;28;20057;-48
2023/04/21 05:29:03;;;;;;;25.75;17.75;;;10.40;58.30;;;;;;5018838;28;20061;-46
2023/04/21 05:31:31;;;;;;;28.75;19.17;;;10.40;58.30;;;;;;5016519;28;20405;-49
2023/04/21 05:33:59;;;;;;;30.05;19.92;;;10.50;58.40;;;;;;5019447;28;20061;-47
2023/04/21 05:36:26;;;;;;;28.98;19.38;;;10.50;58.30;;;;;;5017355;28;20049;-47
2023/04/21 05:38:54;;;;;;;28.75;19.13;;;10.50;58.40;;;;;;5018847;28;20061;-48
2023/04/21 05:41:22;;;;;;;32.50;20.88;;;10.50;58.40;;;;;;5018218;28;20173;-48
2023/04/21 05:43:50;;;;;;;31.38;19.92;;;10.50;58.40;;;;;;5014922;28;20501;-51
2023/04/21 05:46:17;;;;;;;29.90;19.60;;;10.60;58.50;;;;;;5016363;28;20053;-50
2023/04/21 05:48:44;;;;;;;30.48;19.80;;;10.60;58.50;;;;;;5018938;28;20405;-50
2023/04/21 05:51:14;;;;;;;31.67;20.30;;;10.60;58.50;;;;;;5017044;28;20060;-49
2023/04/21 05:53:42;;;;;;;156.95;64.68;;;10.70;58.50;;;;;;5016565;28;20501;-49
2023/04/21 05:56:10;;;;;;;61.35;31.98;;;10.70;58.50;;;;;;5018824;28;20064;-46
2023/04/21 05:58:39;;;;;;;38.35;23.23;;;10.70;58.50;;;;;;5018936;28;20057;-50
2023/04/21 06:01:06;;;;;;;31.02;20.25;;;10.70;58.50;;;;;;5015687;28;20050;-49
2023/04/21 06:03:33;;;;;;;38.13;24.55;;;10.70;58.50;;;;;;5014452;28;20061;-48
2023/04/21 06:06:02;;;;;;;34.08;22.80;;;10.70;58.50;;;;;;5014988;28;20053;-48
2023/04/21 06:08:29;;;;;;;34.53;22.20;;;10.80;58.50;;;;;;5018552;28;20049;-47
2023/04/21 06:10:57;;;;;;;31.52;20.80;;;10.80;58.70;;;;;;5018284;28;20057;-53
2023/04/21 06:13:26;;;;;;;34.35;21.85;;;10.80;58.70;;;;;;5018067;28;20516;-52
2023/04/21 06:15:55;;;;;;;32.92;20.98;;;10.90;58.90;;;;;;5017351;28;20061;-47
2023/04/21 06:18:22;;;;;;;30.00;19.02;;;10.90;59.00;;;;;;5018346;28;20057;-50
2023/04/21 06:20:51;;;;;;;40.20;23.15;;;10.90;59.10;;;;;;5016985;28;20061;-51
2023/04/21 06:23:18;;;;;;;35.92;20.67;;;10.90;59.20;;;;;;5017802;28;20458;-53
2023/04/21 06:25:46;;;;;;;31.58;20.67;;;10.90;59.30;;;;;;5019396;28;20153;-51
2023/04/21 06:28:13;;;;;;;35.58;22.35;;;11.00;59.80;;;;;;5010829;28;20155;-53
2023/04/21 06:30:43;;;;;;;36.45;23.15;;;11.00;59.40;;;;;;5013616;28;20061;-54
2023/04/21 06:33:16;;;;;;;35.42;22.08;;;11.00;59.50;;;;;;5016038;28;20060;-52
2023/04/21 06:35:44;;;;;;;33.97;21.08;;;11.00;59.60;;;;;;5014068;28;20058;-51
2023/04/21 06:38:12;;;;;;;34.28;22.05;;;11.10;59.60;;;;;;5011928;28;20081;-54
2023/04/21 06:40:40;;;;;;;35.17;22.10;;;11.10;59.70;;;;;;5015854;28;20049;-49
2023/04/21 06:43:08;;;;;;;31.25;20.25;;;11.10;59.80;;;;;;5015182;28;20124;-54
2023/04/21 06:45:36;;;;;;;31.80;21.05;;;11.10;59.70;;;;;;5015776;28;20057;-51
2023/04/21 06:48:04;;;;;;;28.90;19.02;;;11.20;59.80;;;;;;5019559;28;20069;-49
2023/04/21 06:50:33;;;;;;;34.45;22.58;;;11.20;59.90;;;;;;5018820;28;20064;-51
2023/04/21 06:53:00;;;;;;;32.22;20.50;;;11.30;60.50;;;;;;5022061;28;20077;-52
2023/04/21 06:55:28;;;;;;;31.98;20.98;;;11.30;60.40;;;;;;5016595;28;20493;-53
2023/04/21 06:57:56;;;;;;;37.10;22.63;;;11.30;60.50;;;;;;5020301;28;20068;-51
2023/04/21 07:00:23;;;;;;;34.08;21.58;;;11.30;61.00;;;;;;5016235;28;20147;-51
2023/04/21 07:02:51;;;;;;;33.53;21.33;;;11.40;61.20;;;;;;5021140;28;20520;-54
2023/04/21 07:05:18;;;;;;;32.67;21.05;;;11.50;62.00;;;;;;5021279;28;20072;-53
2023/04/21 07:07:46;;;;;;;32.03;20.67;;;11.50;61.50;;;;;;5020686;28;20057;-49
2023/04/21 07:10:17;;;;;;;31.65;19.40;;;11.60;61.60;;;;;;5017052;28;20398;-53
2023/04/21 07:12:45;;;;;;;30.25;18.92;;;11.60;61.50;;;;;;5020704;28;20053;-51
2023/04/21 07:15:12;;;;;;;25.95;17.90;;;11.70;61.10;;;;;;5019954;28;20404;-53
2023/04/21 07:17:39;;;;;;;29.52;18.90;;;11.70;60.90;;;;;;5016220;28;20060;-53
2023/04/21 07:20:08;;;;;;;25.25;17.05;;;11.80;60.90;;;;;;5011702;28;20076;-50
2023/04/21 07:22:35;;;;;;;28.10;19.08;;;11.80;60.90;;;;;;5018955;28;20080;-53
2023/04/21 07:25:05;;;;;;;26.00;17.73;;;11.90;60.80;;;;;;5019655;28;20053;-53
2023/04/21 07:27:32;;;;;;;24.73;16.02;;;11.90;60.70;;;;;;5015946;28;20057;-53
2023/04/21 07:30:00;;;;;;;26.88;17.63;;;12.00;60.50;;;;;;5018029;28;20045;-53
2023/04/21 07:32:27;;;;;;;28.63;17.73;;;12.00;60.50;;;;;;5017279;28;20541;-52
2023/04/21 07:34:54;;;;;;;30.60;19.50;;;12.00;60.30;;;;;;5021666;28;20065;-53
2023/04/21 07:37:21;;;;;;;32.38;19.77;;;12.10;60.30;;;;;;5018883;28;21106;-48
2023/04/21 07:39:49;;;;;;;26.88;17.45;;;12.20;60.30;;;;;;5019813;28;20073;-49
2023/04/21 07:42:17;;;;;;;29.52;19.13;;;12.20;60.20;;;;;;5018464;28;20045;-52
2023/04/21 07:44:44;;;;;;;31.73;19.52;;;12.20;59.90;;;;;;5018158;28;20569;-50
2023/04/21 07:47:12;;;;;;;29.35;18.30;;;12.30;59.70;;;;;;5018628;28;20061;-50
2023/04/21 07:49:39;;;;;;;32.03;19.00;;;12.30;59.70;;;;;;5018677;28;20064;-49
2023/04/21 07:52:07;;;;;;;27.38;17.30;;;12.30;59.70;;;;;;5016643;28;20053;-55
2023/04/21 07:54:34;;;;;;;27.63;18.25;;;12.40;59.70;;;;;;5010004;28;20061;-51
2023/04/21 07:57:02;;;;;;;26.25;17.63;;;12.40;59.80;;;;;;5016829;28;20053;-49
2023/04/21 07:59:31;;;;;;;27.67;18.08;;;12.50;59.70;;;;;;5019250;28;20053;-53
2023/04/21 08:01:58;;;;;;;27.50;18.35;;;12.50;59.70;;;;;;5016217;28;20057;-52
2023/04/21 08:04:25;;;;;;;28.27;19.38;;;12.60;59.70;;;;;;5013258;28;20057;-52
2023/04/21 08:06:53;;;;;;;29.77;18.48;;;12.60;59.80;;;;;;5015918;28;20062;-49
2023/04/21 08:09:20;;;;;;;34.67;21.33;;;12.60;59.60;;;;;;5019035;28;20053;-48
2023/04/21 08:11:47;;;;;;;31.58;20.02;;;12.70;59.70;;;;;;5019908;28;20056;-53
2023/04/21 08:14:15;;;;;;;29.92;19.33;;;12.80;59.60;;;;;;5020805;28;20551;-49
2023/04/21 08:16:43;;;;;;;27.35;18.42;;;12.80;59.60;;;;;;5017804;28;20421;-52
2023/04/21 08:19:11;;;;;;;29.88;19.55;;;12.90;59.60;;;;;;5017706;28;20061;-52
2023/04/21 08:21:39;;;;;;;33.72;20.90;;;12.90;59.50;;;;;;5018330;28;20057;-50
2023/04/21 08:24:06;;;;;;;25.65;17.48;;;13.00;59.50;;;;;;5020238;28;20049;-48
2023/04/21 08:26:34;;;;;;;29.42;19.10;;;13.00;59.40;;;;;;5017863;28;20057;-51
2023/04/21 08:29:02;;;;;;;29.40;18.98;;;13.10;59.20;;;;;;5015317;28;20493;-47
2023/04/21 08:31:29;;;;;;;31.33;20.35;;;13.10;58.90;;;;;;5007208;28;20061;-48
2023/04/21 08:34:00;;;;;;;28.95;18.52;;;13.20;58.90;;;;;;5019490;28;20076;-49
2023/04/21 08:36:28;;;;;;;25.50;17.20;;;13.20;58.80;;;;;;5011306;28;20416;-51
2023/04/21 08:38:55;;;;;;;27.20;18.13;;;13.30;59.00;;;;;;5015835;28;20061;-53
2023/04/21 08:41:23;;;;;;;27.08;17.75;;;13.30;59.10;;;;;;5016453;28;20064;-51
2023/04/21 08:43:50;;;;;;;31.42;19.88;;;13.30;58.90;;;;;;5018464;28;20049;-49
2023/04/21 08:46:18;;;;;;;29.33;19.00;;;13.40;58.80;;;;;;5016797;28;20401;-49
2023/04/21 08:48:46;;;;;;;30.73;19.95;;;13.50;58.80;;;;;;5018992;28;20390;-48
2023/04/21 08:51:21;;;;;;;28.40;18.77;;;13.50;58.70;;;;;;5018087;28;20501;-51
2023/04/21 08:53:48;;;;;;;29.25;18.85;;;13.60;58.70;;;;;;5017641;28;20405;-51
2023/04/21 08:56:15;;;;;;;33.97;20.92;;;13.70;58.60;;;;;;5017490;28;20053;-49
2023/04/21 08:58:43;;;;;;;29.02;19.38;;;13.70;58.70;;;;;;5019317;28;20064;-49
2023/04/21 09:01:10;;;;;;;32.63;20.90;;;13.70;58.60;;;;;;5017668;28;20397;-50
2023/04/21 09:03:38;;;;;;;30.50;18.63;;;13.80;58.70;;;;;;5018383;28;20397;-49
2023/04/21 09:06:08;;;;;;;34.45;21.23;;;13.90;58.70;;;;;;5017485;28;20077;-51
2023/04/21 09:08:38;;;;;;;32.88;19.90;;;13.90;58.50;;;;;;5015059;28;20053;-49
2023/04/21 09:11:06;;;;;;;36.58;21.65;;;14.00;58.30;;;;;;5016284;28;20057;-51
2023/04/21 09:13:35;;;;;;;32.95;20.17;;;14.10;58.30;;;;;;5017553;28;20053;-49
2023/04/21 09:16:04;;;;;;;30.35;19.48;;;14.10;58.10;;;;;;5013582;28;20413;-49
2023/04/21 09:18:34;;;;;;;31.20;20.55;;;14.20;58.20;;;;;;5016829;28;20393;-51
2023/04/21 09:21:09;;;;;;;35.50;20.63;;;14.20;58.10;;;;;;5018591;28;20080;-50
2023/04/21 09:23:42;;;;;;;31.33;20.20;;;14.30;58.30;;;;;;5017616;28;20053;-51
2023/04/21 09:26:10;;;;;;;34.25;21.00;;;14.40;58.20;;;;;;5017205;28;20057;-49
2023/04/21 09:28:41;;;;;;;33.15;20.45;;;14.40;58.20;;;;;;5018420;28;20054;-49
2023/04/21 09:31:15;;;;;;;37.25;20.80;;;14.50;58.40;;;;;;5015278;28;20436;-50
2023/04/21 09:33:47;;;;;;;34.55;21.83;;;14.60;58.20;;;;;;5018134;28;20056;-49
2023/04/21 09:36:21;;;;;;;31.52;20.13;;;14.70;57.90;;;;;;5017795;28;20745;-48
2023/04/21 09:38:55;;;;;;;;;;;14.80;57.70;;;;;;5018746;28;20061;-52
2023/04/21 09:41:22;;;;;;;34.70;20.80;;;14.90;57.70;;;;;;5017003;28;20032;-50
2023/04/21 09:43:49;;;;;;;31.67;21.00;;;14.90;57.20;;;;;;5018413;28;20409;-48
2023/04/21 09:46:17;;;;;;;35.70;21.40;;;15.00;56.90;;;;;;5013999;28;20054;-51
2023/04/21 09:48:46;;;;;;;33.22;20.42;;;15.00;56.60;;;;;;5017019;28;20061;-50
2023/04/21 09:51:15;;;;;;;33.42;20.80;;;15.10;56.60;;;;;;5016071;28;20064;-49
2023/04/21 09:53:43;;;;;;;41.90;21.75;;;15.10;56.40;;;;;;5019107;28;20049;-51
2023/04/21 09:56:13;;;;;;;31.35;19.20;;;15.10;56.20;;;;;;5011778;28;20064;-49
2023/04/21 09:58:46;;;;;;;32.70;19.92;;;15.10;55.90;;;;;;5010909;28;20393;-53
2023/04/21 10:01:14;;;;;;;28.88;18.92;;;15.10;55.80;;;;;;5013188;28;20057;-51
2023/04/21 10:03:44;;;;;;;29.38;18.80;;;15.10;55.80;;;;;;5013834;28;20061;-47
2023/04/21 10:06:12;;;;;;;28.23;17.48;;;15.10;56.40;;;;;;5016171;28;20060;-50
2023/04/21 10:08:40;;;;;;;29.20;17.63;;;15.10;55.70;;;;;;5010056;28;20065;-52
2023/04/21 10:11:08;;;;;;;25.13;17.10;;;15.10;55.90;;;;;;5015420;28;20056;-55
2023/04/21 10:13:37;;;;;;;26.50;17.33;;;15.20;55.70;;;;;;5013622;28;20050;-49
2023/04/21 10:16:06;;;;;;;28.83;18.48;;;15.10;55.30;;;;;;5015374;28;20050;-52
2023/04/21 10:18:37;;;;;;;26.67;17.60;;;15.20;55.40;;;;;;5013761;28;20167;-52
2023/04/21 10:21:08;;;;;;;29.10;16.83;;;15.20;55.30;;;;;;5014562;28;20057;-51
2023/04/21 10:23:39;;;;;;;28.15;16.92;;;15.20;55.00;;;;;;5019829;28;20485;-50
2023/04/21 10:26:11;;;;;;;25.90;15.73;;;15.20;55.10;;;;;;5023033;28;20420;-51
2023/04/21 10:28:54;;;;;;;27.13;17.33;;;15.20;55.20;;;;;;5021055;28;20053;-49
2023/04/21 10:31:33;;;;;;;24.73;15.45;;;15.20;55.50;;;;;;5019386;28;20053;-50
2023/04/21 10:34:20;;;;;;;23.88;15.00;;;15.30;55.60;;;;;;5021793;28;20056;-49
2023/04/21 10:37:11;;;;;;;25.63;15.07;;;15.30;55.30;;;;;;5014945;28;20523;-48
2023/04/21 10:39:44;;;;;;;20.75;13.88;;;15.40;55.30;;;;;;5014442;28;20057;-49
2023/04/21 10:42:28;;;;;;;21.90;14.43;;;15.40;55.30;;;;;;5021386;28;20512;-49
2023/04/21 10:45:08;;;;;;;22.20;14.55;;;15.50;55.30;;;;;;5021967;28;20050;-50
2023/04/21 10:47:47;;;;;;;21.98;14.88;;;15.50;55.10;;;;;;5024207;28;20061;-52
2023/04/21 10:50:20;;;;;;;21.73;13.55;;;15.60;54.90;;;;;;5022437;28;20057;-49
2023/04/21 10:52:53;;;;;;;23.85;14.43;;;15.60;54.60;;;;;;5022054;28;20061;-50
2023/04/21 10:55:21;;;;;;;20.48;13.40;;;15.70;54.50;;;;;;5020708;28;20064;-52
2023/04/21 10:57:48;;;;;;;22.02;14.25;;;15.70;54.70;;;;;;5020370;28;20053;-52
2023/04/21 11:00:19;;;;;;;21.85;13.10;;;15.70;54.60;;;;;;5018780;28;20049;-49
2023/04/21 11:02:54;;;;;;;20.73;13.27;;;15.80;54.40;;;;;;5023761;28;20053;-48
2023/04/21 11:05:28;;;;;;;19.05;12.70;;;15.80;54.10;;;;;;5021226;28;20074;-52
2023/04/21 11:08:03;;;;;;;17.50;11.38;;;15.80;54.00;;;;;;5018711;28;20057;-52
2023/04/21 11:10:40;;;;;;;14.85;10.50;;;15.90;54.00;;;;;;5023831;28;20049;-50
2023/04/21 11:13:08;;;;;;;14.93;10.23;;;15.90;53.50;;;;;;5021143;28;20057;-49
2023/04/21 11:15:36;;;;;;;13.98;8.77;;;15.90;53.10;;;;;;5021887;28;20413;-49
2023/04/21 11:18:06;;;;;;;15.90;9.50;;;16.00;53.20;;;;;;5022976;28;20054;-54
2023/04/21 11:20:33;;;;;;;12.98;8.68;;;16.00;53.40;;;;;;5021566;28;20374;-50
2023/04/21 11:23:00;;;;;;;11.57;8.38;;;16.10;53.30;;;;;;5020237;28;20057;-50
2023/04/21 11:25:27;;;;;;;13.70;8.40;;;16.20;52.90;;;;;;5013454;28;20548;-52
2023/04/21 11:27:55;;;;;;;12.43;7.82;;;16.20;52.90;;;;;;5020778;28;20065;-53
2023/04/21 11:30:32;;;;;;;12.30;8.35;;;16.30;52.50;;;;;;5017651;28;20060;-50
2023/04/21 11:33:01;;;;;;;11.63;7.75;;;16.30;52.00;;;;;;5022278;28;20405;-47
2023/04/21 11:35:28;;;;;;;10.57;7.50;;;16.40;51.80;;;;;;5022569;28;20057;-48
2023/04/21 11:37:55;;;;;;;11.27;6.90;;;16.50;51.50;;;;;;5020292;28;20090;-47
2023/04/21 11:40:23;;;;;;;11.27;6.65;;;16.60;51.70;;;;;;5021802;28;20057;-54
2023/04/21 11:42:50;;;;;;;8.50;5.32;;;16.60;51.10;;;;;;5020925;28;20049;-51
2023/04/21 11:45:18;;;;;;;7.15;5.18;;;16.70;50.80;;;;;;5018795;28;20381;-50
2023/04/21 11:47:45;;;;;;;10.65;5.93;;;16.70;50.80;;;;;;5022423;28;21237;-51
2023/04/21 11:50:31;;;;;;;7.78;4.90;;;16.70;50.30;;;;;;5022057;28;20060;-49
2023/04/21 11:52:58;;;;;;;7.18;5.10;;;16.80;49.60;;;;;;5020669;28;20428;-51
2023/04/21 11:55:25;;;;;;;9.85;5.57;;;16.80;49.90;;;;;;5021293;28;20052;-49
2023/04/21 11:57:52;;;;;;;9.02;5.65;;;16.90;50.10;;;;;;5021069;28;20049;-48
2023/04/21 12:00:20;;;;;;;8.15;5.68;;;16.90;50.10;;;;;;5019636;28;20045;-48
2023/04/21 12:02:55;;;;;;;9.52;6.57;;;16.90;50.10;;;;;;5023250;28;20528;-48
2023/04/21 12:05:24;;;;;;;9.32;6.07;;;16.90;49.80;;;;;;5022548;28;20045;-50
2023/04/21 12:07:51;;;;;;;9.63;6.47;;;17.00;50.10;;;;;;5019552;28;20069;-47
2023/04/21 12:10:20;;;;;;;11.98;7.10;;;17.00;50.20;;;;;;5021126;28;20065;-50
2023/04/21 12:12:47;;;;;;;9.85;6.25;;;17.10;50.30;;;;;;5022387;28;20520;-50
2023/04/21 12:15:18;;;;;;;12.48;6.68;;;17.10;50.30;;;;;;5020265;28;20061;-49
2023/04/21 12:17:46;;;;;;;10.63;6.95;;;17.10;50.30;;;;;;5017488;28;20057;-48
2023/04/21 12:20:16;;;;;;;8.38;6.00;;;17.20;50.40;;;;;;5021687;28;20512;-55
2023/04/21 12:22:45;;;;;;;9.85;5.93;;;17.20;50.30;;;;;;5018763;28;20068;-48
2023/04/21 12:25:13;;;;;;;10.77;6.53;;;17.30;50.40;;;;;;5021548;28;20712;-48
2023/04/21 12:27:48;;;;;;;10.30;6.53;;;17.30;50.50;;;;;;5019936;28;20420;-54
2023/04/21 12:30:16;;;;;;;10.18;7.28;;;17.30;50.10;;;;;;5020488;28;20493;-51
2023/04/21 12:32:43;;;;;;;10.88;7.78;;;17.40;50.10;;;;;;5022471;28;20492;-49
2023/04/21 12:35:10;;;;;;;11.98;7.68;;;17.40;50.10;;;;;;5020757;28;20413;-50